Time;durP1;ratioP1;P1;durP2;ratioP2;P2;SDS_P1;SDS_P2;PMS_P1;PMS_P2;Temp;Humidity;BMP_temperature;BMP_pressure;BME280_temperature;BME280_humidity;BME280_pressure;Samples;Min_cycle;Max_cycle;Signal;HPM_P1;HPM_P2
2023/08/30 00:00:56;;;;;;;2.73;2.63;;;;;;;14.18;100.00;94839.75;4330898;32;20296;-66
2023/08/30 00:03:21;;;;;;;2.27;2.17;;;;;;;14.07;100.00;94830.63;4333174;32;20292;-66
2023/08/30 00:05:46;;;;;;;2.87;2.53;;;;;;;14.14;100.00;94830.84;4319620;32;20230;-66
2023/08/30 00:08:13;;;;;;;2.23;2.13;;;;;;;14.24;100.00;94835.78;4321954;33;20189;-66
2023/08/30 00:10:38;;;;;;;1.77;1.67;;;;;;;14.17;100.00;94832.09;4330554;32;20174;-65
2023/08/30 00:13:04;;;;;;;1.90;1.80;;;;;;;14.26;100.00;94825.56;4325230;32;20202;-65
2023/08/30 00:15:30;;;;;;;2.23;2.13;;;;;;;14.16;100.00;94828.63;4319763;32;20252;-66
2023/08/30 00:17:55;;;;;;;3.23;2.03;;;;;;;14.20;100.00;94834.88;4332270;32;20199;-66
2023/08/30 00:20:21;;;;;;;2.03;1.93;;;;;;;14.17;100.00;94824.06;4329922;32;20181;-66
2023/08/30 00:22:48;;;;;;;2.50;2.30;;;;;;;14.15;100.00;94827.06;4325667;32;20229;-66
2023/08/30 00:25:13;;;;;;;1.77;1.70;;;;;;;14.26;100.00;94828.25;4331285;32;20197;-66
2023/08/30 00:27:39;;;;;;;3.40;3.10;;;;;;;14.20;100.00;94826.88;4330424;32;20193;-66
2023/08/30 00:30:05;;;;;;;2.27;2.17;;;;;;;14.17;100.00;94834.75;4332593;32;20269;-66
2023/08/30 00:32:30;;;;;;;3.03;2.73;;;;;;;14.13;100.00;94834.66;4330064;32;20186;-65
2023/08/30 00:34:56;;;;;;;2.00;2.00;;;;;;;14.08;100.00;94834.84;4330708;32;20295;-65
2023/08/30 00:37:21;;;;;;;2.97;2.77;;;;;;;14.10;100.00;94829.97;4332031;32;20287;-66
2023/08/30 00:39:46;;;;;;;2.30;2.20;;;;;;;14.20;100.00;94834.88;4332027;32;20259;-66
2023/08/30 00:42:12;;;;;;;1.80;1.80;;;;;;;14.20;100.00;94829.53;4334701;32;20212;-66
2023/08/30 00:44:37;;;;;;;2.07;1.97;;;;;;;13.83;100.00;94836.59;4332951;32;20235;-66
2023/08/30 00:47:03;;;;;;;2.17;2.07;;;;;;;13.96;100.00;94840.09;4332882;32;20209;-66
2023/08/30 00:49:31;;;;;;;1.53;1.53;;;;;;;14.06;100.00;94835.16;4333032;32;20189;-66
2023/08/30 00:51:59;;;;;;;2.80;1.27;;;;;;;14.14;100.00;94836.19;4319576;32;20263;-66
2023/08/30 00:54:25;;;;;;;2.00;1.90;;;;;;;13.85;100.00;94834.41;4319324;32;20190;-66
2023/08/30 00:56:51;;;;;;;1.87;1.77;;;;;;;13.81;100.00;94835.38;4331109;32;20193;-66
2023/08/30 00:59:16;;;;;;;1.80;1.80;;;;;;;13.71;100.00;94833.87;4319085;32;20267;-66
2023/08/30 01:01:42;;;;;;;2.73;2.60;;;;;;;13.80;100.00;94823.13;4334389;32;20194;-66
2023/08/30 01:04:08;;;;;;;2.20;2.10;;;;;;;13.83;100.00;94830.50;4332664;32;20193;-66
2023/08/30 01:06:36;;;;;;;2.20;2.10;;;;;;;14.03;100.00;94829.69;4331297;32;20173;-65
2023/08/30 01:09:03;;;;;;;2.03;1.93;;;;;;;13.88;100.00;94832.97;4331465;32;20213;-66
2023/08/30 01:11:34;;;;;;;1.60;1.50;;;;;;;14.01;100.00;94831.91;4332056;32;20221;-66
2023/08/30 01:14:03;;;;;;;1.93;1.83;;;;;;;14.06;100.00;94831.72;4332563;32;20182;-66
2023/08/30 01:16:29;;;;;;;1.73;1.73;;;;;;;13.92;100.00;94831.22;4329114;32;20201;-66
2023/08/30 01:18:56;;;;;;;3.00;2.80;;;;;;;13.93;100.00;94835.41;4326809;32;20252;-66
2023/08/30 01:21:47;;;;;;;2.17;2.10;;;;;;;14.03;100.00;94835.81;4331349;32;20204;-66
2023/08/30 01:24:21;;;;;;;1.83;1.80;;;;;;;13.94;100.00;94842.31;4332704;32;20223;-66
2023/08/30 01:27:03;;;;;;;1.90;1.80;;;;;;;14.13;100.00;94829.31;4330772;32;20203;-65
2023/08/30 01:29:30;;;;;;;2.93;2.07;;;;;;;14.00;100.00;94825.78;4332075;32;20265;-65
2023/08/30 01:31:56;;;;;;;1.23;1.23;;;;;;;14.11;100.00;94826.19;4332932;32;20233;-66
2023/08/30 01:34:22;;;;;;;2.70;2.60;;;;;;;14.07;100.00;94825.28;4331782;32;20249;-66
2023/08/30 01:36:48;;;;;;;2.40;2.20;;;;;;;14.00;100.00;94822.34;4320257;32;20225;-65
2023/08/30 01:39:15;;;;;;;1.70;1.70;;;;;;;14.03;100.00;94819.81;4333082;32;20198;-66
2023/08/30 01:41:41;;;;;;;2.27;2.17;;;;;;;13.99;100.00;94826.13;4332969;32;20264;-65
2023/08/30 01:44:07;;;;;;;2.83;2.60;;;;;;;13.67;100.00;94828.41;4332603;32;20209;-65
2023/08/30 01:46:34;;;;;;;1.37;1.37;;;;;;;13.83;100.00;94825.16;4330745;32;20208;-65
2023/08/30 01:49:02;;;;;;;2.23;2.13;;;;;;;13.87;100.00;94829.53;4338652;32;20197;-65
2023/08/30 01:51:29;;;;;;;2.27;2.17;;;;;;;13.86;100.00;94829.84;4319190;32;20205;-65
2023/08/30 01:53:57;;;;;;;1.33;1.33;;;;;;;13.91;100.00;94827.00;4331867;32;20186;-65
2023/08/30 01:56:22;;;;;;;1.73;1.70;;;;;;;13.91;100.00;94813.66;4318487;32;20225;-65
2023/08/30 01:58:48;;;;;;;2.60;2.50;;;;;;;13.80;100.00;94820.47;4318411;32;20212;-66
2023/08/30 02:01:13;;;;;;;1.97;1.87;;;;;;;13.97;100.00;94810.44;4333602;32;20181;-66
2023/08/30 02:03:38;;;;;;;1.17;1.17;;;;;;;14.05;100.00;94814.16;4325378;32;20251;-66
2023/08/30 02:06:11;;;;;;;2.53;2.33;;;;;;;14.03;100.00;94816.38;4332304;32;20207;-65
2023/08/30 02:09:18;;;;;;;2.20;2.10;;;;;;;13.87;100.00;94826.06;4331986;32;20182;-66
2023/08/30 02:11:45;;;;;;;2.10;2.00;;;;;;;14.13;100.00;94825.87;4319007;32;20205;-65
2023/08/30 02:14:17;;;;;;;1.40;1.40;;;;;;;14.26;100.00;94825.56;4325707;32;20202;-66
2023/08/30 02:16:43;;;;;;;1.70;1.70;;;;;;;14.07;100.00;94826.06;4328585;32;20292;-65
2023/08/30 02:19:08;;;;;;;1.40;1.30;;;;;;;13.94;100.00;94824.41;4329717;32;20315;-65
2023/08/30 02:21:34;;;;;;;1.43;1.37;;;;;;;14.00;100.00;94825.00;4331712;32;20202;-65
2023/08/30 02:23:59;;;;;;;1.30;1.30;;;;;;;13.90;100.00;94820.09;4331669;32;20194;-66
2023/08/30 02:26:24;;;;;;;1.73;1.73;;;;;;;13.99;100.00;94823.44;4330382;32;20252;-65
2023/08/30 02:28:50;;;;;;;2.17;2.07;;;;;;;13.81;100.00;94814.81;4328777;32;20212;-65
2023/08/30 02:31:15;;;;;;;2.00;1.90;;;;;;;13.85;100.00;94815.72;4331905;32;20204;-66
2023/08/30 02:33:40;;;;;;;1.73;1.63;;;;;;;13.78;100.00;94818.13;4328143;32;20199;-65
2023/08/30 02:36:06;;;;;;;1.97;1.87;;;;;;;13.84;100.00;94818.72;4331265;32;20211;-65
2023/08/30 02:38:31;;;;;;;1.53;1.53;;;;;;;13.71;100.00;94818.66;4331864;32;20220;-65
2023/08/30 02:40:56;;;;;;;2.20;1.97;;;;;;;13.72;100.00;94820.19;4327770;32;20336;-66
2023/08/30 02:43:22;;;;;;;2.07;1.97;;;;;;;13.79;100.00;94825.03;4328443;32;20186;-65
2023/08/30 02:45:47;;;;;;;1.90;1.80;;;;;;;13.72;100.00;94824.75;4330530;32;20227;-66
2023/08/30 02:48:14;;;;;;;1.23;1.23;;;;;;;13.67;100.00;94817.75;4331013;32;20186;-65
2023/08/30 02:50:39;;;;;;;1.47;1.47;;;;;;;13.69;100.00;94826.22;4331276;32;20193;-65
2023/08/30 02:53:08;;;;;;;1.40;1.40;;;;;;;13.70;100.00;94824.31;4317457;32;20182;-65
2023/08/30 02:55:34;;;;;;;0.90;0.90;;;;;;;13.72;100.00;94820.19;4330282;32;20245;-65
2023/08/30 02:57:59;;;;;;;1.13;1.13;;;;;;;13.87;100.00;94826.84;4328728;32;20188;-66
2023/08/30 03:00:25;;;;;;;5.40;2.10;;;;;;;13.85;100.00;94825.63;4329950;32;20182;-66
2023/08/30 03:02:50;;;;;;;1.90;1.80;;;;;;;13.97;100.00;94825.66;4317701;32;20190;-66
2023/08/30 03:05:15;;;;;;;1.03;1.03;;;;;;;13.76;100.00;94821.13;4332479;32;20177;-65
2023/08/30 03:07:41;;;;;;;1.33;1.33;;;;;;;13.95;100.00;94831.31;4331692;32;20186;-66
2023/08/30 03:10:06;;;;;;;1.43;1.43;;;;;;;13.85;100.00;94822.94;4329506;32;20178;-65
2023/08/30 03:12:32;;;;;;;1.47;1.40;;;;;;;13.84;100.00;94832.84;4317831;32;20229;-66
2023/08/30 03:14:58;;;;;;;1.53;1.53;;;;;;;13.93;100.00;94820.19;4323280;32;20232;-65
2023/08/30 03:17:24;;;;;;;1.60;1.50;;;;;;;14.03;100.00;94824.38;4317330;32;20197;-66
2023/08/30 03:19:52;;;;;;;1.93;1.83;;;;;;;14.03;100.00;94817.16;4331231;32;20189;-66
2023/08/30 03:22:18;;;;;;;1.50;1.50;;;;;;;13.93;100.00;94822.09;4329645;32;20241;-66
2023/08/30 03:24:43;;;;;;;1.80;1.17;;;;;;;13.98;100.00;94816.56;4328889;32;20208;-65
2023/08/30 03:27:08;;;;;;;0.97;0.97;;;;;;;13.90;100.00;94815.53;4328532;32;20181;-65
2023/08/30 03:29:33;;;;;;;1.17;1.17;;;;;;;14.01;100.00;94805.25;4330670;32;20182;-66
2023/08/30 03:31:59;;;;;;;1.50;1.50;;;;;;;13.92;100.00;94807.22;4330820;32;20202;-65
2023/08/30 03:34:24;;;;;;;0.70;0.70;;;;;;;13.75;100.00;94808.88;4329262;32;20347;-66
2023/08/30 03:36:54;;;;;;;1.03;1.03;;;;;;;13.84;100.00;94803.50;4317642;32;20194;-65
2023/08/30 03:39:20;;;;;;;1.37;1.37;;;;;;;13.86;100.00;94809.28;4332217;32;20182;-65
2023/08/30 03:41:46;;;;;;;1.87;1.80;;;;;;;13.79;100.00;94813.56;4336709;32;20235;-66
2023/08/30 03:44:11;;;;;;;1.23;1.23;;;;;;;13.79;100.00;94808.25;4336596;32;20181;-65
2023/08/30 03:46:36;;;;;;;1.10;1.10;;;;;;;13.55;100.00;94812.34;4328651;32;20302;-65
2023/08/30 03:49:03;;;;;;;0.97;0.97;;;;;;;13.72;100.00;94809.53;4330866;32;20178;-65
2023/08/30 03:51:28;;;;;;;1.87;1.80;;;;;;;13.82;100.00;94812.94;4317224;32;20212;-65
2023/08/30 03:53:56;;;;;;;1.57;1.47;;;;;;;13.72;100.00;94819.41;4329359;32;20182;-66
2023/08/30 03:56:21;;;;;;;1.20;1.20;;;;;;;13.79;100.00;94813.56;4330680;32;20208;-65
2023/08/30 03:58:46;;;;;;;1.23;1.13;;;;;;;13.85;100.00;94817.63;4330435;32;20241;-66
2023/08/30 04:01:12;;;;;;;0.73;0.73;;;;;;;13.84;100.00;94816.06;4332482;32;20181;-65
2023/08/30 04:03:37;;;;;;;1.03;1.03;;;;;;;13.91;100.00;94814.44;4330412;32;20196;-66
2023/08/30 04:06:02;;;;;;;1.00;1.00;;;;;;;14.03;100.00;94813.69;4330557;32;20182;-65
2023/08/30 04:08:28;;;;;;;1.77;1.77;;;;;;;13.99;100.00;94816.22;4328887;32;20185;-65
2023/08/30 04:10:53;;;;;;;1.70;1.60;;;;;;;14.12;100.00;94818.97;4328919;32;20186;-66
2023/08/30 04:13:19;;;;;;;1.30;1.30;;;;;;;14.01;100.00;94816.69;4329237;32;20182;-66
2023/08/30 04:15:44;;;;;;;1.70;1.60;;;;;;;14.06;100.00;94815.72;4331037;32;20170;-66
2023/08/30 04:18:09;;;;;;;1.17;1.10;;;;;;;14.11;100.00;94815.53;4322623;32;20197;-65
2023/08/30 04:20:35;;;;;;;1.33;1.33;;;;;;;13.99;100.00;94812.78;4330810;32;20194;-65
2023/08/30 04:23:04;;;;;;;2.00;1.03;;;;;;;13.99;100.00;94810.91;4327009;32;20178;-66
2023/08/30 04:25:30;;;;;;;1.37;1.37;;;;;;;13.87;100.00;94818.84;4316574;32;20177;-66
2023/08/30 04:27:55;;;;;;;1.97;1.87;;;;;;;14.01;100.00;94815.91;4328892;32;20224;-66
2023/08/30 04:30:21;;;;;;;1.37;1.33;;;;;;;14.02;100.00;94823.59;4330491;32;20178;-65
2023/08/30 04:32:46;;;;;;;1.23;1.23;;;;;;;13.90;100.00;94817.44;4330523;32;20185;-66
2023/08/30 04:35:12;;;;;;;0.70;0.70;;;;;;;14.06;100.00;94821.06;4330883;32;20186;-65
2023/08/30 04:37:38;;;;;;;1.30;1.30;;;;;;;13.98;100.00;94819.22;4330371;32;20199;-66
2023/08/30 04:40:11;;;;;;;0.93;0.93;;;;;;;13.96;100.00;94824.09;4330074;32;20174;-65
2023/08/30 04:42:39;;;;;;;1.00;1.00;;;;;;;13.97;100.00;94826.44;4328018;32;20295;-65
2023/08/30 04:45:05;;;;;;;1.23;1.13;;;;;;;14.16;100.00;94823.28;4316202;32;20185;-65
2023/08/30 04:47:31;;;;;;;1.03;1.03;;;;;;;14.06;100.00;94819.16;4324996;32;20225;-66
2023/08/30 04:49:57;;;;;;;2.33;1.70;;;;;;;13.93;100.00;94817.53;4331497;32;20204;-66
2023/08/30 04:52:22;;;;;;;1.27;1.20;;;;;;;13.92;100.00;94818.66;4333141;32;20185;-65
2023/08/30 04:54:48;;;;;;;1.57;1.57;;;;;;;14.03;100.00;94824.38;4333450;32;20231;-66
2023/08/30 04:57:16;;;;;;;1.13;1.13;;;;;;;14.14;100.00;94819.41;4333505;32;20204;-65
2023/08/30 04:59:42;;;;;;;1.30;1.30;;;;;;;14.12;100.00;94821.62;4333135;32;20186;-65
2023/08/30 05:02:07;;;;;;;1.10;1.10;;;;;;;14.03;100.00;94821.69;4331568;32;20269;-66
2023/08/30 05:04:32;;;;;;;2.47;1.03;;;;;;;14.16;100.00;94827.84;4332841;32;20235;-65
2023/08/30 05:06:58;;;;;;;1.57;1.57;;;;;;;14.11;100.00;94828.84;4332546;32;20192;-65
2023/08/30 05:09:24;;;;;;;1.33;1.33;;;;;;;14.05;100.00;94817.59;4332294;32;20193;-65
2023/08/30 05:11:50;;;;;;;1.33;1.30;;;;;;;14.01;100.00;94819.34;4333099;32;20204;-65
2023/08/30 05:14:16;;;;;;;1.00;1.00;;;;;;;14.21;100.00;94825.78;4333304;32;20194;-65
2023/08/30 05:16:41;;;;;;;1.93;1.83;;;;;;;14.13;100.00;94823.97;4333188;32;20182;-66
2023/08/30 05:19:06;;;;;;;2.47;2.03;;;;;;;14.02;100.00;94825.47;4329189;32;20266;-66
2023/08/30 05:21:32;;;;;;;1.43;1.43;;;;;;;14.03;100.00;94824.38;4319315;32;20178;-66
2023/08/30 05:23:57;;;;;;;1.33;1.33;;;;;;;14.03;100.00;94827.03;4330625;32;20224;-65
2023/08/30 05:26:22;;;;;;;0.90;0.90;;;;;;;14.00;100.00;94827.69;4318556;32;20190;-66
2023/08/30 05:28:47;;;;;;;1.57;1.50;;;;;;;14.06;100.00;94824.50;4332298;32;20232;-66
2023/08/30 05:31:13;;;;;;;1.47;1.40;;;;;;;14.16;100.00;94830.53;4334634;32;20200;-66
2023/08/30 05:33:38;;;;;;;1.70;1.60;;;;;;;14.14;100.00;94833.50;4328514;32;20178;-65
2023/08/30 05:36:03;;;;;;;1.53;1.50;;;;;;;14.21;100.00;94836.44;4331465;32;20208;-65
2023/08/30 05:38:29;;;;;;;1.67;1.63;;;;;;;14.19;100.00;94837.88;4318363;32;20197;-65
2023/08/30 05:40:54;;;;;;;1.40;1.40;;;;;;;14.06;100.00;94835.16;4318807;32;20181;-66
2023/08/30 05:43:19;;;;;;;1.80;1.73;;;;;;;14.06;100.00;94826.37;4332154;32;20208;-66
2023/08/30 05:45:44;;;;;;;2.27;1.17;;;;;;;14.03;100.00;94825.16;4320217;32;20193;-65
2023/08/30 05:48:10;;;;;;;1.00;1.00;;;;;;;14.12;100.00;94826.97;4330550;32;20306;-65
2023/08/30 05:50:35;;;;;;;1.33;1.33;;;;;;;14.04;100.00;94828.59;4332530;32;20220;-65
2023/08/30 05:53:01;;;;;;;1.50;1.50;;;;;;;13.90;100.00;94831.53;4332379;32;20189;-66
2023/08/30 05:55:26;;;;;;;2.27;2.17;;;;;;;13.84;100.00;94832.06;4332205;32;20189;-65
2023/08/30 05:57:51;;;;;;;1.40;1.40;;;;;;;13.91;100.00;94835.78;4332247;32;20198;-65
2023/08/30 06:00:17;;;;;;;1.40;1.40;;;;;;;13.81;100.00;94830.03;4332392;32;20208;-66
2023/08/30 06:02:43;;;;;;;1.00;1.00;;;;;;;13.93;100.00;94830.09;4333532;32;20224;-65
2023/08/30 06:05:08;;;;;;;1.70;1.60;;;;;;;13.98;100.00;94833.34;4332191;32;20178;-65
2023/08/30 06:07:34;;;;;;;1.87;1.77;;;;;;;13.98;100.00;94837.91;4332079;32;20182;-65
2023/08/30 06:09:59;;;;;;;1.70;1.60;;;;;;;14.19;100.00;94836.00;4328662;32;20209;-65
2023/08/30 06:12:25;;;;;;;1.07;1.07;;;;;;;14.24;100.00;94835.78;4332016;32;20194;-65
2023/08/30 06:14:52;;;;;;;1.33;1.23;;;;;;;14.31;100.00;94838.72;4328226;32;20186;-66
2023/08/30 06:17:21;;;;;;;3.33;1.40;;;;;;;14.25;100.00;94842.69;4329924;32;20205;-66
2023/08/30 06:19:46;;;;;;;1.47;1.37;;;;;;;14.42;100.00;94836.44;4332159;32;20216;-65
2023/08/30 06:22:12;;;;;;;1.43;1.43;;;;;;;14.43;100.00;94844.12;4328206;32;20186;-65
2023/08/30 06:24:37;;;;;;;2.07;1.93;;;;;;;14.30;100.00;94845.16;4329927;32;20264;-65
2023/08/30 06:27:03;;;;;;;1.30;1.30;;;;;;;14.32;100.00;94845.62;4330904;32;20197;-65
2023/08/30 06:29:28;;;;;;;1.90;1.63;;;;;;;14.19;100.00;94849.31;4330950;32;20189;-66
2023/08/30 06:31:54;;;;;;;1.57;1.47;;;;;;;14.20;100.00;94842.88;4330528;32;20185;-65
2023/08/30 06:34:19;;;;;;;1.20;1.13;;;;;;;14.20;100.00;94850.88;4331213;32;20252;-65
2023/08/30 06:36:45;;;;;;;1.43;1.43;;;;;;;14.16;100.00;94849.97;4333835;32;20259;-65
2023/08/30 06:39:10;;;;;;;1.40;1.40;;;;;;;14.21;100.00;94841.78;4332143;32;20197;-65
2023/08/30 06:41:36;;;;;;;1.10;1.10;;;;;;;14.15;100.00;94843.06;4331258;32;20197;-65
2023/08/30 06:44:01;;;;;;;1.23;1.23;;;;;;;14.14;100.00;94841.50;4330692;32;20186;-65
2023/08/30 06:46:26;;;;;;;2.50;1.93;;;;;;;14.17;100.00;94840.09;4331458;32;20224;-66
2023/08/30 06:48:52;;;;;;;2.17;2.07;;;;;;;14.07;100.00;94841.28;4331552;32;20185;-66
2023/08/30 06:51:17;;;;;;;1.73;1.63;;;;;;;14.07;100.00;94838.63;4331273;32;20244;-66
2023/08/30 06:53:42;;;;;;;1.67;1.67;;;;;;;14.28;100.00;94849.25;4333029;32;20201;-65
2023/08/30 06:56:08;;;;;;;2.20;2.10;;;;;;;14.29;100.00;94840.16;4329634;32;20190;-65
2023/08/30 06:58:33;;;;;;;0.97;0.97;;;;;;;14.28;100.00;94844.72;4330274;32;20196;-65
2023/08/30 07:00:58;;;;;;;1.37;1.33;;;;;;;14.39;100.00;94848.50;4330749;32;20237;-66
2023/08/30 07:03:24;;;;;;;1.60;1.60;;;;;;;14.32;100.00;94850.16;4329346;32;20217;-65
2023/08/30 07:05:52;;;;;;;1.67;1.57;;;;;;;14.24;100.00;94848.34;4331069;32;20205;-65
2023/08/30 07:08:17;;;;;;;1.83;1.73;;;;;;;14.25;100.00;94850.69;4329717;32;20219;-66
2023/08/30 07:10:43;;;;;;;1.30;1.30;;;;;;;14.21;100.00;94841.78;4332473;32;20182;-66
2023/08/30 07:13:11;;;;;;;1.47;1.47;;;;;;;14.13;100.00;94839.97;4329923;32;20206;-65
2023/08/30 07:15:40;;;;;;;1.30;1.30;;;;;;;14.29;100.00;94834.81;4329722;32;20213;-65
2023/08/30 07:18:07;;;;;;;1.93;1.83;;;;;;;14.34;100.00;94837.28;4326996;32;20205;-65
2023/08/30 07:20:33;;;;;;;1.33;1.33;;;;;;;14.13;100.00;94831.19;4329589;32;20193;-65
2023/08/30 07:22:59;;;;;;;1.67;1.47;;;;;;;14.16;100.00;94830.53;4331013;32;20241;-65
2023/08/30 07:25:24;;;;;;;1.40;1.37;;;;;;;14.06;100.00;94834.37;4330558;32;20236;-65
2023/08/30 07:27:50;;;;;;;2.20;2.10;;;;;;;13.90;100.00;94836.88;4329935;32;20194;-65
2023/08/30 07:30:15;;;;;;;1.00;1.00;;;;;;;14.08;100.00;94832.19;4319988;32;20209;-66
2023/08/30 07:32:41;;;;;;;2.13;2.03;;;;;;;14.19;100.00;94838.66;4330613;32;20237;-65
2023/08/30 07:35:06;;;;;;;1.50;1.50;;;;;;;14.25;100.00;94837.34;4330799;32;20212;-65
2023/08/30 07:37:32;;;;;;;2.30;2.20;;;;;;;14.34;100.00;94843.38;4330443;32;20197;-65
2023/08/30 07:39:57;;;;;;;1.53;1.43;;;;;;;14.25;100.00;94842.69;4330724;32;20259;-66
2023/08/30 07:42:22;;;;;;;2.27;2.17;;;;;;;14.38;100.00;94841.63;4331031;32;20202;-65
2023/08/30 07:44:48;;;;;;;2.33;2.13;;;;;;;14.32;100.00;94842.94;4330623;32;20229;-66
2023/08/30 07:47:13;;;;;;;1.73;1.63;;;;;;;14.48;100.00;94843.13;4331066;32;20201;-66
2023/08/30 07:49:39;;;;;;;2.30;2.17;;;;;;;14.23;100.00;94839.56;4317160;32;20197;-65
2023/08/30 07:52:04;;;;;;;1.80;1.70;;;;;;;14.43;100.00;94852.12;4327191;32;20198;-65
2023/08/30 07:54:31;;;;;;;1.93;1.87;;;;;;;14.30;100.00;94850.50;4330636;32;20229;-65
2023/08/30 07:56:56;;;;;;;1.47;1.47;;;;;;;14.49;100.00;94860.72;4330740;32;20197;-65
2023/08/30 07:59:21;;;;;;;1.43;1.43;;;;;;;14.75;100.00;94857.78;4317051;32;20186;-66
2023/08/30 08:01:46;;;;;;;1.17;1.17;;;;;;;14.71;100.00;94859.53;4332123;32;20201;-65
2023/08/30 08:04:12;;;;;;;1.83;1.77;;;;;;;14.70;99.90;94866.00;4329944;32;20216;-65
2023/08/30 08:06:37;;;;;;;1.57;1.47;;;;;;;14.62;99.91;94864.19;4326305;32;20276;-65
2023/08/30 08:09:02;;;;;;;1.87;1.83;;;;;;;14.54;100.00;94865.84;4329549;32;20206;-66
2023/08/30 08:11:28;;;;;;;1.93;1.83;;;;;;;14.65;100.00;94861.63;4330248;32;20229;-65
2023/08/30 08:13:53;;;;;;;2.73;1.80;;;;;;;14.73;99.47;94855.44;4330902;32;20216;-65
2023/08/30 08:16:19;;;;;;;1.33;1.33;;;;;;;14.66;100.00;94862.41;4330683;32;20228;-66
2023/08/30 08:18:44;;;;;;;1.90;1.83;;;;;;;14.55;100.00;94862.03;4324712;32;20197;-65
2023/08/30 08:21:10;;;;;;;1.57;1.50;;;;;;;14.71;100.00;94863.00;4331189;32;20189;-65
2023/08/30 08:23:35;;;;;;;1.47;1.47;;;;;;;14.86;100.00;94860.78;4333408;32;20201;-66
2023/08/30 08:26:02;;;;;;;1.90;1.90;;;;;;;14.93;99.87;94864.50;4333441;32;20217;-66
2023/08/30 08:28:27;;;;;;;2.70;2.60;;;;;;;14.95;99.55;94861.50;4330747;32;20212;-66
2023/08/30 08:30:53;;;;;;;3.23;2.23;;;;;;;14.93;99.79;94869.84;4332150;32;20186;-66
2023/08/30 08:33:18;;;;;;;1.60;1.60;;;;;;;15.06;99.19;94868.72;4331944;32;20237;-65
2023/08/30 08:35:44;;;;;;;2.10;2.00;;;;;;;14.95;98.56;94872.19;4335299;32;20204;-65
2023/08/30 08:38:10;;;;;;;2.00;1.90;;;;;;;14.99;98.00;94871.16;4332906;32;20194;-66
2023/08/30 08:40:39;;;;;;;1.70;1.70;;;;;;;14.88;98.43;94870.03;4333037;32;20204;-65
2023/08/30 08:43:05;;;;;;;2.43;2.33;;;;;;;14.86;98.59;94874.16;4333176;32;20237;-65
2023/08/30 08:45:34;;;;;;;2.10;2.00;;;;;;;14.99;97.09;94871.16;4330196;32;20197;-65
2023/08/30 08:48:05;;;;;;;2.17;2.07;;;;;;;15.20;96.76;94875.62;4331623;32;20249;-65
2023/08/30 08:50:33;;;;;;;2.50;1.63;;;;;;;15.15;97.62;94863.28;4333032;32;20189;-66
2023/08/30 08:53:00;;;;;;;1.17;1.17;;;;;;;15.17;96.38;94866.41;4333056;32;20230;-65
2023/08/30 08:55:32;;;;;;;1.87;1.77;;;;;;;15.07;95.63;94862.28;4333321;32;20201;-66
2023/08/30 08:57:59;;;;;;;1.53;1.53;;;;;;;15.03;96.07;94861.38;4328914;32;20228;-66
2023/08/30 09:00:25;;;;;;;1.47;1.47;;;;;;;15.17;96.53;94865.63;4331060;32;20189;-66
2023/08/30 09:02:52;;;;;;;2.37;2.00;;;;;;;15.09;96.30;94859.28;4332625;32;20202;-66
2023/08/30 09:05:19;;;;;;;2.03;1.93;;;;;;;15.20;96.73;94864.94;4333841;32;20272;-66
2023/08/30 09:07:45;;;;;;;2.87;2.73;;;;;;;15.25;97.62;94856.72;4332529;32;20194;-66
2023/08/30 09:10:11;;;;;;;1.40;1.40;;;;;;;15.57;97.39;94855.06;4332449;32;20232;-65
2023/08/30 09:12:36;;;;;;;1.40;1.40;;;;;;;15.68;96.55;94848.91;4328044;32;20198;-66
2023/08/30 09:15:04;;;;;;;2.20;2.10;;;;;;;15.74;94.57;94847.59;4329110;32;20200;-65
2023/08/30 09:17:37;;;;;;;1.40;1.40;;;;;;;15.88;93.31;94843.75;4330198;32;20244;-66
2023/08/30 09:20:10;;;;;;;1.87;1.87;;;;;;;15.78;94.05;94847.69;4332204;32;20182;-66
2023/08/30 09:22:38;;;;;;;2.17;2.07;;;;;;;16.08;93.94;94846.25;4332379;32;20202;-65
2023/08/30 09:25:04;;;;;;;1.87;1.77;;;;;;;16.30;92.95;94838.81;4332431;32;20231;-66
2023/08/30 09:27:34;;;;;;;1.70;1.60;;;;;;;16.42;93.20;94839.53;4332127;32;20216;-66
2023/08/30 09:29:59;;;;;;;1.83;1.73;;;;;;;16.46;92.72;94840.41;4332106;32;20232;-66
2023/08/30 09:32:25;;;;;;;1.37;1.37;;;;;;;16.43;92.34;94841.09;4331312;32;20182;-66
2023/08/30 09:34:51;;;;;;;2.00;1.40;;;;;;;16.29;91.58;94840.72;4331902;33;20213;-65
2023/08/30 09:37:26;;;;;;;1.00;1.00;;;;;;;16.37;91.86;94831.78;4333066;32;20228;-66
2023/08/30 09:39:52;;;;;;;0.80;0.80;;;;;;;16.18;89.85;94836.97;4331044;32;20198;-66
2023/08/30 09:42:18;;;;;;;1.50;1.40;;;;;;;16.29;90.01;94840.72;4330474;32;20232;-65
2023/08/30 09:44:43;;;;;;;0.90;0.90;;;;;;;15.79;89.56;94841.97;4330800;32;20204;-66
2023/08/30 09:47:09;;;;;;;0.90;0.90;;;;;;;16.05;88.81;94835.44;4331863;32;20198;-66
2023/08/30 09:49:45;;;;;;;1.63;1.30;;;;;;;16.01;90.07;94843.38;4328763;32;20244;-66
2023/08/30 09:52:14;;;;;;;0.80;0.80;;;;;;;16.02;90.07;94841.47;4330330;32;20209;-65
2023/08/30 09:54:43;;;;;;;1.37;1.37;;;;;;;15.99;88.51;94837.59;4332398;32;20193;-66
2023/08/30 09:57:12;;;;;;;2.17;2.07;;;;;;;16.09;89.52;94837.12;4331964;32;20283;-66
2023/08/30 09:59:39;;;;;;;2.73;2.07;;;;;;;16.23;90.00;94835.94;4324372;33;20198;-66
2023/08/30 10:02:05;;;;;;;1.60;1.50;;;;;;;16.26;89.35;94825.34;4332034;32;20223;-65
2023/08/30 10:04:32;;;;;;;1.63;1.60;;;;;;;16.38;89.93;94827.97;4318089;32;20212;-67
2023/08/30 10:06:58;;;;;;;1.13;1.13;;;;;;;16.39;88.79;94826.09;4331653;32;20208;-66
2023/08/30 10:09:24;;;;;;;1.80;1.33;;;;;;;16.34;86.29;94816.38;4331572;32;20195;-66
2023/08/30 10:11:50;;;;;;;0.77;0.77;;;;;;;16.54;86.85;94813.84;4330321;32;20189;-66
2023/08/30 10:14:17;;;;;;;0.53;0.53;;;;;;;16.44;85.93;94813.19;4327760;32;20227;-65
2023/08/30 10:16:46;;;;;;;1.27;1.17;;;;;;;16.73;86.58;94801.38;4332034;32;20204;-66
2023/08/30 10:19:26;;;;;;;0.50;0.50;;;;;;;16.85;86.07;94803.16;4331480;32;20186;-66
2023/08/30 10:22:14;;;;;;;0.87;0.87;;;;;;;16.87;86.03;94805.50;4330277;32;20185;-66
2023/08/30 10:24:48;;;;;;;0.40;0.40;;;;;;;16.97;86.14;94802.31;4330065;32;20190;-66
2023/08/30 10:27:15;;;;;;;0.37;0.37;;;;;;;17.07;86.36;94797.19;4318265;33;20224;-66
2023/08/30 10:29:43;;;;;;;0.63;0.63;;;;;;;17.13;85.94;94795.81;4329399;32;20197;-66
2023/08/30 10:32:09;;;;;;;0.50;0.50;;;;;;;17.24;85.80;94806.03;4330428;32;20205;-65
2023/08/30 10:34:36;;;;;;;0.73;0.60;;;;;;;17.07;84.75;94807.94;4331647;32;20189;-66
2023/08/30 10:37:09;;;;;;;0.27;0.27;;;;;;;17.04;83.72;94802.50;4328034;32;20186;-66
2023/08/30 10:39:38;;;;;;;0.40;0.40;;;;;;;17.22;80.93;94800.25;4324288;32;20247;-66
2023/08/30 10:42:08;;;;;;;0.30;0.30;;;;;;;17.33;78.23;94801.25;4331188;32;20224;-66
2023/08/30 10:44:34;;;;;;;1.40;0.80;;;;;;;17.47;79.41;94796.19;4331508;32;20193;-65
2023/08/30 10:47:03;;;;;;;0.50;0.50;;;;;;;17.41;80.90;94801.06;4331442;32;20245;-66
2023/08/30 10:49:28;;;;;;;0.57;0.57;;;;;;;17.21;82.95;94796.00;4327937;32;20223;-66
2023/08/30 10:51:57;;;;;;;0.30;0.30;;;;;;;17.28;81.05;94804.19;4317853;32;20186;-65
2023/08/30 10:54:26;;;;;;;0.40;0.40;;;;;;;17.31;84.77;94798.13;4329836;32;20188;-66
2023/08/30 10:56:51;;;;;;;2.03;0.60;;;;;;;17.30;84.53;94796.56;4329685;32;20190;-66
2023/08/30 10:59:21;;;;;;;0.60;0.60;;;;;;;17.45;85.89;94793.09;4333077;32;20249;-66
2023/08/30 11:01:47;;;;;;;0.27;0.27;;;;;;;17.37;80.01;94794.84;4328103;32;20194;-66
2023/08/30 11:04:15;;;;;;;2.67;0.60;;;;;;;17.26;80.40;94795.72;4326369;32;20186;-66
2023/08/30 11:06:43;;;;;;;1.07;1.07;;;;;;;17.29;81.32;94793.13;4327004;32;20253;-66
2023/08/30 11:09:11;;;;;;;0.30;0.30;;;;;;;17.29;79.95;94792.34;4330748;32;20181;-66
2023/08/30 11:11:37;;;;;;;0.53;0.53;;;;;;;17.26;78.98;94793.03;4330056;32;20185;-66
2023/08/30 11:14:09;;;;;;;0.60;0.60;;;;;;;17.28;79.81;94791.56;4327573;32;20241;-66
2023/08/30 11:16:36;;;;;;;0.10;0.10;;;;;;;17.20;80.85;94792.53;4317514;32;20185;-66
2023/08/30 11:19:03;;;;;;;0.70;0.70;;;;;;;17.23;81.20;94785.72;4330379;32;20264;-66
2023/08/30 11:21:37;;;;;;;0.37;0.37;;;;;;;17.23;81.90;94797.22;4331767;32;20178;-66
2023/08/30 11:24:04;;;;;;;0.47;0.47;;;;;;;17.11;79.82;94786.56;4326503;32;20201;-66